sensor_id;sensor_type;location;lat;lon;timestamp;P1;durP1;ratioP1;P2;durP2;ratioP2
49384;SDS011;36795;45.028;38.968;2023-08-07T00:01:21;26.90;;;6.80;;
49384;SDS011;36795;45.028;38.968;2023-08-07T00:04:38;30.52;;;6.45;;
49384;SDS011;36795;45.028;38.968;2023-08-07T00:07:44;25.10;;;6.78;;
49384;SDS011;36795;45.028;38.968;2023-08-07T00:11:09;24.83;;;6.65;;
49384;SDS011;36795;45.028;38.968;2023-08-07T00:14:25;26.65;;;7.87;;
49384;SDS011;36795;45.028;38.968;2023-08-07T00:17:54;24.45;;;7.82;;
49384;SDS011;36795;45.028;38.968;2023-08-07T00:24:35;26.08;;;8.45;;
49384;SDS011;36795;45.028;38.968;2023-08-07T00:27:51;25.27;;;8.07;;
49384;SDS011;36795;45.028;38.968;2023-08-07T00:30:58;24.92;;;8.35;;
49384;SDS011;36795;45.028;38.968;2023-08-07T00:34:20;25.23;;;7.87;;
49384;SDS011;36795;45.028;38.968;2023-08-07T00:37:25;28.98;;;8.07;;
49384;SDS011;36795;45.028;38.968;2023-08-07T00:40:54;25.53;;;7.83;;
49384;SDS011;36795;45.028;38.968;2023-08-07T00:44:13;25.80;;;8.30;;
49384;SDS011;36795;45.028;38.968;2023-08-07T00:47:28;24.50;;;8.00;;
49384;SDS011;36795;45.028;38.968;2023-08-07T00:50:38;23.67;;;7.90;;
49384;SDS011;36795;45.028;38.968;2023-08-07T00:53:59;28.83;;;8.10;;
49384;SDS011;36795;45.028;38.968;2023-08-07T00:57:19;22.02;;;7.22;;
49384;SDS011;36795;45.028;38.968;2023-08-07T01:00:33;23.00;;;7.57;;
49384;SDS011;36795;45.028;38.968;2023-08-07T01:03:44;25.23;;;7.82;;
49384;SDS011;36795;45.028;38.968;2023-08-07T01:06:59;20.60;;;6.78;;
49384;SDS011;36795;45.028;38.968;2023-08-07T01:10:35;23.42;;;8.57;;
49384;SDS011;36795;45.028;38.968;2023-08-07T01:14:13;26.67;;;7.40;;
49384;SDS011;36795;45.028;38.968;2023-08-07T01:17:42;26.80;;;7.85;;
49384;SDS011;36795;45.028;38.968;2023-08-07T01:21:20;25.75;;;7.35;;
49384;SDS011;36795;45.028;38.968;2023-08-07T01:24:39;29.60;;;17.08;;
49384;SDS011;36795;45.028;38.968;2023-08-07T01:28:09;22.20;;;7.85;;
49384;SDS011;36795;45.028;38.968;2023-08-07T01:31:25;22.20;;;7.20;;
49384;SDS011;36795;45.028;38.968;2023-08-07T01:34:47;22.08;;;6.53;;
49384;SDS011;36795;45.028;38.968;2023-08-07T01:38:09;26.50;;;6.78;;
49384;SDS011;36795;45.028;38.968;2023-08-07T01:41:25;24.12;;;7.45;;
49384;SDS011;36795;45.028;38.968;2023-08-07T01:48:10;21.20;;;6.63;;
49384;SDS011;36795;45.028;38.968;2023-08-07T01:51:42;25.73;;;7.15;;
49384;SDS011;36795;45.028;38.968;2023-08-07T01:58:22;22.33;;;6.53;;
49384;SDS011;36795;45.028;38.968;2023-08-07T02:02:16;23.12;;;6.37;;
49384;SDS011;36795;45.028;38.968;2023-08-07T02:05:20;17.98;;;6.22;;
49384;SDS011;36795;45.028;38.968;2023-08-07T02:08:32;19.17;;;5.95;;
49384;SDS011;36795;45.028;38.968;2023-08-07T02:11:50;22.58;;;7.12;;
49384;SDS011;36795;45.028;38.968;2023-08-07T02:15:14;23.20;;;6.20;;
49384;SDS011;36795;45.028;38.968;2023-08-07T02:21:31;25.62;;;6.90;;
49384;SDS011;36795;45.028;38.968;2023-08-07T02:24:59;21.27;;;6.60;;
49384;SDS011;36795;45.028;38.968;2023-08-07T02:28:11;23.55;;;7.05;;
49384;SDS011;36795;45.028;38.968;2023-08-07T02:31:13;24.83;;;7.35;;
49384;SDS011;36795;45.028;38.968;2023-08-07T02:34:44;21.65;;;6.82;;
49384;SDS011;36795;45.028;38.968;2023-08-07T02:37:55;23.92;;;7.53;;
49384;SDS011;36795;45.028;38.968;2023-08-07T02:40:51;21.77;;;6.80;;
49384;SDS011;36795;45.028;38.968;2023-08-07T02:43:54;26.05;;;6.85;;
49384;SDS011;36795;45.028;38.968;2023-08-07T02:47:12;23.02;;;6.60;;
49384;SDS011;36795;45.028;38.968;2023-08-07T02:49:58;24.27;;;7.45;;
49384;SDS011;36795;45.028;38.968;2023-08-07T02:52:45;22.20;;;7.15;;
49384;SDS011;36795;45.028;38.968;2023-08-07T02:55:30;21.87;;;7.12;;
49384;SDS011;36795;45.028;38.968;2023-08-07T02:58:20;23.65;;;7.05;;
49384;SDS011;36795;45.028;38.968;2023-08-07T03:01:22;23.35;;;6.87;;
49384;SDS011;36795;45.028;38.968;2023-08-07T03:04:38;24.58;;;7.75;;
49384;SDS011;36795;45.028;38.968;2023-08-07T03:07:42;28.00;;;7.57;;
49384;SDS011;36795;45.028;38.968;2023-08-07T03:11:05;24.80;;;6.80;;
49384;SDS011;36795;45.028;38.968;2023-08-07T03:14:26;22.50;;;7.18;;
49384;SDS011;36795;45.028;38.968;2023-08-07T03:17:43;26.50;;;7.40;;
49384;SDS011;36795;45.028;38.968;2023-08-07T03:24:29;23.10;;;7.35;;
49384;SDS011;36795;45.028;38.968;2023-08-07T03:27:44;27.35;;;8.02;;
49384;SDS011;36795;45.028;38.968;2023-08-07T03:31:02;22.75;;;6.53;;
49384;SDS011;36795;45.028;38.968;2023-08-07T03:34:04;29.08;;;9.25;;
49384;SDS011;36795;45.028;38.968;2023-08-07T03:37:29;21.90;;;6.53;;
49384;SDS011;36795;45.028;38.968;2023-08-07T03:40:33;25.12;;;7.15;;
49384;SDS011;36795;45.028;38.968;2023-08-07T03:43:51;24.55;;;8.48;;
49384;SDS011;36795;45.028;38.968;2023-08-07T03:47:03;26.70;;;8.02;;
49384;SDS011;36795;45.028;38.968;2023-08-07T03:50:07;23.92;;;8.20;;
49384;SDS011;36795;45.028;38.968;2023-08-07T03:56:57;22.83;;;7.55;;
49384;SDS011;36795;45.028;38.968;2023-08-07T04:00:03;22.55;;;7.68;;
49384;SDS011;36795;45.028;38.968;2023-08-07T04:03:04;23.70;;;7.50;;
49384;SDS011;36795;45.028;38.968;2023-08-07T04:09:37;30.88;;;7.28;;
49384;SDS011;36795;45.028;38.968;2023-08-07T04:12:51;24.02;;;6.72;;
49384;SDS011;36795;45.028;38.968;2023-08-07T04:16:10;23.55;;;6.30;;
49384;SDS011;36795;45.028;38.968;2023-08-07T04:19:41;19.40;;;6.28;;
49384;SDS011;36795;45.028;38.968;2023-08-07T04:22:53;23.92;;;7.03;;
49384;SDS011;36795;45.028;38.968;2023-08-07T04:26:45;23.30;;;5.70;;
49384;SDS011;36795;45.028;38.968;2023-08-07T04:30:00;21.23;;;6.50;;
49384;SDS011;36795;45.028;38.968;2023-08-07T04:33:26;21.30;;;6.45;;
49384;SDS011;36795;45.028;38.968;2023-08-07T04:36:36;18.75;;;6.28;;
49384;SDS011;36795;45.028;38.968;2023-08-07T04:39:43;20.05;;;5.80;;
49384;SDS011;36795;45.028;38.968;2023-08-07T04:43:13;22.35;;;5.97;;
49384;SDS011;36795;45.028;38.968;2023-08-07T04:46:29;18.02;;;5.25;;
49384;SDS011;36795;45.028;38.968;2023-08-07T04:49:55;19.25;;;5.50;;
49384;SDS011;36795;45.028;38.968;2023-08-07T04:53:10;20.15;;;5.53;;
49384;SDS011;36795;45.028;38.968;2023-08-07T04:56:21;18.55;;;6.05;;
49384;SDS011;36795;45.028;38.968;2023-08-07T04:59:26;22.45;;;6.43;;
49384;SDS011;36795;45.028;38.968;2023-08-07T05:06:13;16.58;;;5.68;;
49384;SDS011;36795;45.028;38.968;2023-08-07T05:09:24;17.90;;;5.20;;
49384;SDS011;36795;45.028;38.968;2023-08-07T05:12:47;18.45;;;5.95;;
49384;SDS011;36795;45.028;38.968;2023-08-07T05:15:59;15.45;;;5.05;;
49384;SDS011;36795;45.028;38.968;2023-08-07T05:19:03;19.35;;;6.00;;
49384;SDS011;36795;45.028;38.968;2023-08-07T05:22:18;18.98;;;5.55;;
49384;SDS011;36795;45.028;38.968;2023-08-07T05:25:20;18.23;;;5.93;;
49384;SDS011;36795;45.028;38.968;2023-08-07T05:28:30;19.92;;;5.30;;
49384;SDS011;36795;45.028;38.968;2023-08-07T05:31:26;22.08;;;5.55;;
49384;SDS011;36795;45.028;38.968;2023-08-07T05:34:40;17.17;;;5.75;;
49384;SDS011;36795;45.028;38.968;2023-08-07T05:37:51;18.55;;;5.40;;
49384;SDS011;36795;45.028;38.968;2023-08-07T05:40:57;19.52;;;5.45;;
49384;SDS011;36795;45.028;38.968;2023-08-07T05:43:51;17.85;;;5.47;;
49384;SDS011;36795;45.028;38.968;2023-08-07T05:47:23;19.87;;;5.50;;
49384;SDS011;36795;45.028;38.968;2023-08-07T05:50:21;21.42;;;5.62;;
49384;SDS011;36795;45.028;38.968;2023-08-07T05:53:31;18.12;;;5.70;;
49384;SDS011;36795;45.028;38.968;2023-08-07T05:56:29;18.77;;;5.30;;
49384;SDS011;36795;45.028;38.968;2023-08-07T05:59:40;14.63;;;5.00;;
49384;SDS011;36795;45.028;38.968;2023-08-07T06:02:50;17.70;;;5.25;;
49384;SDS011;36795;45.028;38.968;2023-08-07T06:05:58;14.73;;;4.20;;
49384;SDS011;36795;45.028;38.968;2023-08-07T06:09:17;17.95;;;4.95;;
49384;SDS011;36795;45.028;38.968;2023-08-07T06:12:34;17.60;;;5.80;;
49384;SDS011;36795;45.028;38.968;2023-08-07T06:15:32;16.55;;;4.95;;
49384;SDS011;36795;45.028;38.968;2023-08-07T06:18:33;17.37;;;5.00;;
49384;SDS011;36795;45.028;38.968;2023-08-07T06:21:41;20.45;;;5.43;;
49384;SDS011;36795;45.028;38.968;2023-08-07T06:24:57;18.70;;;5.32;;
49384;SDS011;36795;45.028;38.968;2023-08-07T06:28:04;16.58;;;5.05;;
49384;SDS011;36795;45.028;38.968;2023-08-07T06:31:11;16.80;;;5.28;;
49384;SDS011;36795;45.028;38.968;2023-08-07T06:34:23;21.35;;;4.97;;
49384;SDS011;36795;45.028;38.968;2023-08-07T06:37:31;18.90;;;5.07;;
49384;SDS011;36795;45.028;38.968;2023-08-07T06:40:34;17.55;;;5.00;;
49384;SDS011;36795;45.028;38.968;2023-08-07T06:43:42;17.50;;;5.03;;
49384;SDS011;36795;45.028;38.968;2023-08-07T06:47:10;16.55;;;5.15;;
49384;SDS011;36795;45.028;38.968;2023-08-07T06:50:16;17.58;;;4.57;;
49384;SDS011;36795;45.028;38.968;2023-08-07T06:53:25;16.92;;;4.82;;
49384;SDS011;36795;45.028;38.968;2023-08-07T06:59:41;18.05;;;5.28;;
49384;SDS011;36795;45.028;38.968;2023-08-07T07:03:09;16.90;;;4.53;;
49384;SDS011;36795;45.028;38.968;2023-08-07T07:06:12;18.90;;;5.12;;
49384;SDS011;36795;45.028;38.968;2023-08-07T07:09:23;18.05;;;4.90;;
49384;SDS011;36795;45.028;38.968;2023-08-07T07:12:22;16.25;;;4.72;;
49384;SDS011;36795;45.028;38.968;2023-08-07T07:15:36;13.13;;;4.70;;
49384;SDS011;36795;45.028;38.968;2023-08-07T07:18:49;17.62;;;4.45;;
49384;SDS011;36795;45.028;38.968;2023-08-07T07:22:12;22.95;;;6.53;;
49384;SDS011;36795;45.028;38.968;2023-08-07T07:25:31;17.50;;;4.90;;
49384;SDS011;36795;45.028;38.968;2023-08-07T07:28:46;20.98;;;4.43;;
49384;SDS011;36795;45.028;38.968;2023-08-07T07:31:52;16.85;;;4.37;;
49384;SDS011;36795;45.028;38.968;2023-08-07T07:35:11;17.23;;;5.03;;
49384;SDS011;36795;45.028;38.968;2023-08-07T07:38:18;15.20;;;4.55;;
49384;SDS011;36795;45.028;38.968;2023-08-07T07:41:36;17.73;;;4.68;;
49384;SDS011;36795;45.028;38.968;2023-08-07T07:44:44;15.00;;;4.20;;
49384;SDS011;36795;45.028;38.968;2023-08-07T07:48:09;14.95;;;4.70;;
49384;SDS011;36795;45.028;38.968;2023-08-07T07:58:22;16.60;;;4.57;;
49384;SDS011;36795;45.028;38.968;2023-08-07T08:01:27;18.10;;;4.45;;
49384;SDS011;36795;45.028;38.968;2023-08-07T08:08:00;15.98;;;4.72;;
49384;SDS011;36795;45.028;38.968;2023-08-07T08:11:37;14.05;;;4.07;;
49384;SDS011;36795;45.028;38.968;2023-08-07T08:15:02;21.25;;;4.85;;
49384;SDS011;36795;45.028;38.968;2023-08-07T08:18:21;18.55;;;4.72;;
49384;SDS011;36795;45.028;38.968;2023-08-07T08:21:32;16.10;;;4.75;;
49384;SDS011;36795;45.028;38.968;2023-08-07T08:24:34;18.50;;;4.40;;
49384;SDS011;36795;45.028;38.968;2023-08-07T08:27:38;17.02;;;4.20;;
49384;SDS011;36795;45.028;38.968;2023-08-07T08:30:47;17.67;;;4.65;;
49384;SDS011;36795;45.028;38.968;2023-08-07T08:34:00;15.77;;;4.32;;
49384;SDS011;36795;45.028;38.968;2023-08-07T08:37:11;14.10;;;4.65;;
49384;SDS011;36795;45.028;38.968;2023-08-07T08:40:25;16.85;;;4.10;;
49384;SDS011;36795;45.028;38.968;2023-08-07T08:43:28;14.93;;;4.70;;
49384;SDS011;36795;45.028;38.968;2023-08-07T08:46:28;18.35;;;4.32;;
49384;SDS011;36795;45.028;38.968;2023-08-07T08:49:33;15.95;;;4.20;;
49384;SDS011;36795;45.028;38.968;2023-08-07T08:52:55;19.08;;;4.32;;
49384;SDS011;36795;45.028;38.968;2023-08-07T08:55:56;18.75;;;4.82;;
49384;SDS011;36795;45.028;38.968;2023-08-07T08:59:02;14.70;;;4.40;;
49384;SDS011;36795;45.028;38.968;2023-08-07T09:02:06;14.13;;;4.40;;
49384;SDS011;36795;45.028;38.968;2023-08-07T09:05:21;15.10;;;4.25;;
49384;SDS011;36795;45.028;38.968;2023-08-07T09:08:26;15.30;;;4.37;;
49384;SDS011;36795;45.028;38.968;2023-08-07T09:11:30;19.08;;;5.43;;
49384;SDS011;36795;45.028;38.968;2023-08-07T09:14:29;18.92;;;4.50;;
49384;SDS011;36795;45.028;38.968;2023-08-07T09:18:01;20.50;;;4.90;;
49384;SDS011;36795;45.028;38.968;2023-08-07T09:21:03;12.43;;;4.10;;
49384;SDS011;36795;45.028;38.968;2023-08-07T09:24:09;18.27;;;5.05;;
49384;SDS011;36795;45.028;38.968;2023-08-07T09:27:21;16.33;;;4.35;;
49384;SDS011;36795;45.028;38.968;2023-08-07T09:30:30;16.10;;;5.00;;
49384;SDS011;36795;45.028;38.968;2023-08-07T09:33:34;18.02;;;5.25;;
49384;SDS011;36795;45.028;38.968;2023-08-07T09:36:42;17.10;;;4.65;;
49384;SDS011;36795;45.028;38.968;2023-08-07T09:40:08;18.83;;;5.12;;
49384;SDS011;36795;45.028;38.968;2023-08-07T09:43:08;13.43;;;4.37;;
49384;SDS011;36795;45.028;38.968;2023-08-07T09:46:46;14.07;;;4.15;;
49384;SDS011;36795;45.028;38.968;2023-08-07T09:50:01;17.42;;;4.90;;
49384;SDS011;36795;45.028;38.968;2023-08-07T09:53:03;14.57;;;4.30;;
49384;SDS011;36795;45.028;38.968;2023-08-07T09:56:10;15.50;;;4.22;;
49384;SDS011;36795;45.028;38.968;2023-08-07T09:59:45;14.38;;;4.00;;
49384;SDS011;36795;45.028;38.968;2023-08-07T10:06:05;16.65;;;4.72;;
49384;SDS011;36795;45.028;38.968;2023-08-07T10:09:16;15.90;;;5.30;;
49384;SDS011;36795;45.028;38.968;2023-08-07T10:12:20;19.58;;;5.57;;
49384;SDS011;36795;45.028;38.968;2023-08-07T10:15:25;17.23;;;4.70;;
49384;SDS011;36795;45.028;38.968;2023-08-07T10:19:04;15.88;;;4.80;;
49384;SDS011;36795;45.028;38.968;2023-08-07T10:22:05;13.18;;;4.50;;
49384;SDS011;36795;45.028;38.968;2023-08-07T10:25:13;13.98;;;4.50;;
49384;SDS011;36795;45.028;38.968;2023-08-07T10:28:20;16.95;;;4.30;;
49384;SDS011;36795;45.028;38.968;2023-08-07T10:31:36;18.12;;;4.47;;
49384;SDS011;36795;45.028;38.968;2023-08-07T10:34:43;17.80;;;4.90;;
49384;SDS011;36795;45.028;38.968;2023-08-07T10:38:29;16.02;;;4.30;;
49384;SDS011;36795;45.028;38.968;2023-08-07T10:41:52;13.48;;;4.12;;
49384;SDS011;36795;45.028;38.968;2023-08-07T10:44:55;20.33;;;6.65;;
49384;SDS011;36795;45.028;38.968;2023-08-07T10:48:20;22.20;;;7.12;;
49384;SDS011;36795;45.028;38.968;2023-08-07T10:51:28;19.50;;;6.35;;
49384;SDS011;36795;45.028;38.968;2023-08-07T10:54:49;25.80;;;7.45;;
49384;SDS011;36795;45.028;38.968;2023-08-07T10:58:02;22.85;;;6.20;;
49384;SDS011;36795;45.028;38.968;2023-08-07T11:04:22;24.37;;;6.10;;
49384;SDS011;36795;45.028;38.968;2023-08-07T11:07:25;18.92;;;5.47;;
49384;SDS011;36795;45.028;38.968;2023-08-07T11:10:24;16.97;;;5.03;;
49384;SDS011;36795;45.028;38.968;2023-08-07T11:13:26;18.70;;;5.50;;
49384;SDS011;36795;45.028;38.968;2023-08-07T11:16:34;16.55;;;4.85;;
49384;SDS011;36795;45.028;38.968;2023-08-07T11:19:30;17.42;;;5.00;;
49384;SDS011;36795;45.028;38.968;2023-08-07T11:22:42;21.37;;;5.97;;
49384;SDS011;36795;45.028;38.968;2023-08-07T11:25:44;24.02;;;6.78;;
49384;SDS011;36795;45.028;38.968;2023-08-07T11:29:10;23.80;;;9.85;;
49384;SDS011;36795;45.028;38.968;2023-08-07T11:32:28;25.50;;;10.85;;
49384;SDS011;36795;45.028;38.968;2023-08-07T11:35:43;25.45;;;12.50;;
49384;SDS011;36795;45.028;38.968;2023-08-07T11:38:52;28.10;;;12.30;;
49384;SDS011;36795;45.028;38.968;2023-08-07T11:42:00;24.12;;;12.23;;
49384;SDS011;36795;45.028;38.968;2023-08-07T11:44:58;28.15;;;11.25;;
49384;SDS011;36795;45.028;38.968;2023-08-07T11:48:01;25.02;;;10.48;;
49384;SDS011;36795;45.028;38.968;2023-08-07T11:51:07;25.67;;;10.02;;
49384;SDS011;36795;45.028;38.968;2023-08-07T11:57:21;17.80;;;5.87;;
49384;SDS011;36795;45.028;38.968;2023-08-07T12:00:25;20.85;;;6.47;;
49384;SDS011;36795;45.028;38.968;2023-08-07T12:03:31;20.15;;;5.78;;
49384;SDS011;36795;45.028;38.968;2023-08-07T12:06:36;19.62;;;5.28;;
49384;SDS011;36795;45.028;38.968;2023-08-07T12:09:57;23.58;;;6.90;;
49384;SDS011;36795;45.028;38.968;2023-08-07T12:13:07;16.48;;;4.78;;
49384;SDS011;36795;45.028;38.968;2023-08-07T12:16:17;22.85;;;5.28;;
49384;SDS011;36795;45.028;38.968;2023-08-07T12:19:24;18.42;;;5.03;;
49384;SDS011;36795;45.028;38.968;2023-08-07T12:22:45;20.58;;;5.07;;
49384;SDS011;36795;45.028;38.968;2023-08-07T12:25:44;17.50;;;5.28;;
49384;SDS011;36795;45.028;38.968;2023-08-07T12:28:41;17.45;;;4.62;;
49384;SDS011;36795;45.028;38.968;2023-08-07T12:31:45;20.15;;;4.82;;
49384;SDS011;36795;45.028;38.968;2023-08-07T12:34:58;16.35;;;4.70;;
49384;SDS011;36795;45.028;38.968;2023-08-07T12:38:02;18.75;;;4.68;;
49384;SDS011;36795;45.028;38.968;2023-08-07T12:41:01;17.42;;;4.50;;
49384;SDS011;36795;45.028;38.968;2023-08-07T12:44:09;20.12;;;5.50;;
49384;SDS011;36795;45.028;38.968;2023-08-07T12:47:18;22.83;;;5.18;;
49384;SDS011;36795;45.028;38.968;2023-08-07T12:50:27;18.77;;;4.80;;
49384;SDS011;36795;45.028;38.968;2023-08-07T12:53:25;16.58;;;5.28;;
49384;SDS011;36795;45.028;38.968;2023-08-07T12:56:30;18.58;;;5.28;;
49384;SDS011;36795;45.028;38.968;2023-08-07T12:59:28;16.80;;;4.68;;
49384;SDS011;36795;45.028;38.968;2023-08-07T13:02:53;16.33;;;4.93;;
49384;SDS011;36795;45.028;38.968;2023-08-07T13:05:48;22.83;;;5.82;;
49384;SDS011;36795;45.028;38.968;2023-08-07T13:08:55;17.15;;;5.12;;
49384;SDS011;36795;45.028;38.968;2023-08-07T13:11:57;20.50;;;5.35;;
49384;SDS011;36795;45.028;38.968;2023-08-07T13:15:30;19.35;;;5.30;;
49384;SDS011;36795;45.028;38.968;2023-08-07T13:18:47;23.85;;;5.60;;
49384;SDS011;36795;45.028;38.968;2023-08-07T13:21:51;22.35;;;5.93;;
49384;SDS011;36795;45.028;38.968;2023-08-07T13:24:51;17.03;;;4.87;;
49384;SDS011;36795;45.028;38.968;2023-08-07T13:27:57;21.02;;;6.87;;
49384;SDS011;36795;45.028;38.968;2023-08-07T13:34:07;17.37;;;5.30;;
49384;SDS011;36795;45.028;38.968;2023-08-07T13:37:09;16.98;;;5.07;;
49384;SDS011;36795;45.028;38.968;2023-08-07T13:40:22;17.45;;;5.07;;
49384;SDS011;36795;45.028;38.968;2023-08-07T13:43:21;24.80;;;5.80;;
49384;SDS011;36795;45.028;38.968;2023-08-07T13:46:21;15.13;;;5.37;;
49384;SDS011;36795;45.028;38.968;2023-08-07T13:49:24;19.92;;;5.47;;
49384;SDS011;36795;45.028;38.968;2023-08-07T13:52:32;23.05;;;5.37;;
49384;SDS011;36795;45.028;38.968;2023-08-07T13:55:42;18.80;;;5.60;;
49384;SDS011;36795;45.028;38.968;2023-08-07T13:59:23;21.20;;;5.87;;
49384;SDS011;36795;45.028;38.968;2023-08-07T14:02:28;17.55;;;5.22;;
49384;SDS011;36795;45.028;38.968;2023-08-07T14:05:43;16.23;;;5.12;;
49384;SDS011;36795;45.028;38.968;2023-08-07T14:09:04;24.75;;;6.25;;
49384;SDS011;36795;45.028;38.968;2023-08-07T14:12:18;20.83;;;5.28;;
49384;SDS011;36795;45.028;38.968;2023-08-07T14:15:18;15.90;;;5.47;;
49384;SDS011;36795;45.028;38.968;2023-08-07T14:18:25;20.15;;;4.78;;
49384;SDS011;36795;45.028;38.968;2023-08-07T14:21:28;20.60;;;5.62;;
49384;SDS011;36795;45.028;38.968;2023-08-07T14:24:30;18.83;;;5.62;;
49384;SDS011;36795;45.028;38.968;2023-08-07T14:27:37;21.48;;;5.50;;
49384;SDS011;36795;45.028;38.968;2023-08-07T14:30:37;17.75;;;5.40;;
49384;SDS011;36795;45.028;38.968;2023-08-07T14:33:51;22.10;;;5.78;;
49384;SDS011;36795;45.028;38.968;2023-08-07T14:36:52;20.83;;;5.65;;
49384;SDS011;36795;45.028;38.968;2023-08-07T14:39:57;19.17;;;5.90;;
49384;SDS011;36795;45.028;38.968;2023-08-07T14:43:06;20.73;;;5.57;;
49384;SDS011;36795;45.028;38.968;2023-08-07T14:46:09;18.25;;;5.47;;
49384;SDS011;36795;45.028;38.968;2023-08-07T14:49:14;19.83;;;5.62;;
49384;SDS011;36795;45.028;38.968;2023-08-07T14:52:16;19.90;;;5.60;;
49384;SDS011;36795;45.028;38.968;2023-08-07T14:55:30;20.27;;;5.55;;
49384;SDS011;36795;45.028;38.968;2023-08-07T14:58:33;20.08;;;6.37;;
49384;SDS011;36795;45.028;38.968;2023-08-07T15:01:46;18.58;;;5.65;;
49384;SDS011;36795;45.028;38.968;2023-08-07T15:04:54;20.55;;;6.15;;
49384;SDS011;36795;45.028;38.968;2023-08-07T15:08:17;20.70;;;5.60;;
49384;SDS011;36795;45.028;38.968;2023-08-07T15:11:29;20.98;;;5.72;;
49384;SDS011;36795;45.028;38.968;2023-08-07T15:14:24;22.02;;;6.25;;
49384;SDS011;36795;45.028;38.968;2023-08-07T15:17:39;22.35;;;7.00;;
49384;SDS011;36795;45.028;38.968;2023-08-07T15:21:03;18.98;;;6.25;;
49384;SDS011;36795;45.028;38.968;2023-08-07T15:24:10;20.50;;;6.05;;
49384;SDS011;36795;45.028;38.968;2023-08-07T15:27:17;21.05;;;5.75;;
49384;SDS011;36795;45.028;38.968;2023-08-07T15:30:25;24.83;;;5.90;;
49384;SDS011;36795;45.028;38.968;2023-08-07T15:33:42;19.83;;;6.68;;
49384;SDS011;36795;45.028;38.968;2023-08-07T15:36:46;20.67;;;6.25;;
49384;SDS011;36795;45.028;38.968;2023-08-07T15:39:51;20.47;;;5.73;;
49384;SDS011;36795;45.028;38.968;2023-08-07T15:43:00;26.98;;;7.75;;
49384;SDS011;36795;45.028;38.968;2023-08-07T15:46:12;20.15;;;6.20;;
49384;SDS011;36795;45.028;38.968;2023-08-07T15:49:18;21.65;;;6.75;;
49384;SDS011;36795;45.028;38.968;2023-08-07T15:52:32;23.33;;;7.90;;
49384;SDS011;36795;45.028;38.968;2023-08-07T15:55:30;21.27;;;7.53;;
49384;SDS011;36795;45.028;38.968;2023-08-07T15:58:52;22.17;;;6.97;;
49384;SDS011;36795;45.028;38.968;2023-08-07T16:01:59;20.50;;;6.20;;
49384;SDS011;36795;45.028;38.968;2023-08-07T16:05:09;22.20;;;6.25;;
49384;SDS011;36795;45.028;38.968;2023-08-07T16:08:18;23.87;;;6.03;;
49384;SDS011;36795;45.028;38.968;2023-08-07T16:11:23;23.50;;;6.07;;
49384;SDS011;36795;45.028;38.968;2023-08-07T16:14:36;20.45;;;6.07;;
49384;SDS011;36795;45.028;38.968;2023-08-07T16:17:35;25.50;;;7.05;;
49384;SDS011;36795;45.028;38.968;2023-08-07T16:20:33;24.20;;;7.00;;
49384;SDS011;36795;45.028;38.968;2023-08-07T16:23:39;23.12;;;6.68;;
49384;SDS011;36795;45.028;38.968;2023-08-07T16:26:48;19.33;;;6.30;;
49384;SDS011;36795;45.028;38.968;2023-08-07T16:30:06;18.05;;;6.30;;
49384;SDS011;36795;45.028;38.968;2023-08-07T16:32:59;22.30;;;6.65;;
49384;SDS011;36795;45.028;38.968;2023-08-07T16:35:53;21.73;;;6.40;;
49384;SDS011;36795;45.028;38.968;2023-08-07T16:38:49;24.45;;;7.40;;
49384;SDS011;36795;45.028;38.968;2023-08-07T16:41:41;20.73;;;6.43;;
49384;SDS011;36795;45.028;38.968;2023-08-07T16:44:39;25.05;;;6.75;;
49384;SDS011;36795;45.028;38.968;2023-08-07T16:47:37;20.77;;;6.35;;
49384;SDS011;36795;45.028;38.968;2023-08-07T16:50:48;24.20;;;7.60;;
49384;SDS011;36795;45.028;38.968;2023-08-07T16:53:57;24.75;;;7.28;;
49384;SDS011;36795;45.028;38.968;2023-08-07T16:57:04;24.20;;;7.03;;
49384;SDS011;36795;45.028;38.968;2023-08-07T17:00:18;22.75;;;7.25;;
49384;SDS011;36795;45.028;38.968;2023-08-07T17:03:23;26.90;;;7.12;;
49384;SDS011;36795;45.028;38.968;2023-08-07T17:06:44;26.02;;;6.57;;
49384;SDS011;36795;45.028;38.968;2023-08-07T17:09:57;21.58;;;7.18;;
49384;SDS011;36795;45.028;38.968;2023-08-07T17:13:15;28.65;;;8.02;;
49384;SDS011;36795;45.028;38.968;2023-08-07T17:16:35;19.80;;;6.47;;
49384;SDS011;36795;45.028;38.968;2023-08-07T17:19:46;19.75;;;6.35;;
49384;SDS011;36795;45.028;38.968;2023-08-07T17:23:03;22.62;;;6.75;;
49384;SDS011;36795;45.028;38.968;2023-08-07T17:26:55;22.65;;;6.90;;
49384;SDS011;36795;45.028;38.968;2023-08-07T17:30:17;22.60;;;6.95;;
49384;SDS011;36795;45.028;38.968;2023-08-07T17:33:37;22.35;;;6.37;;
49384;SDS011;36795;45.028;38.968;2023-08-07T17:40:09;19.42;;;6.10;;
49384;SDS011;36795;45.028;38.968;2023-08-07T17:43:25;21.87;;;6.65;;
49384;SDS011;36795;45.028;38.968;2023-08-07T17:46:51;23.90;;;7.55;;
49384;SDS011;36795;45.028;38.968;2023-08-07T17:50:03;21.42;;;7.00;;
49384;SDS011;36795;45.028;38.968;2023-08-07T17:53:16;22.75;;;6.25;;
49384;SDS011;36795;45.028;38.968;2023-08-07T17:56:24;20.33;;;6.60;;
49384;SDS011;36795;45.028;38.968;2023-08-07T18:03:11;57.88;;;10.65;;
49384;SDS011;36795;45.028;38.968;2023-08-07T18:06:13;21.25;;;6.93;;
49384;SDS011;36795;45.028;38.968;2023-08-07T18:09:23;22.15;;;6.70;;
49384;SDS011;36795;45.028;38.968;2023-08-07T18:12:41;26.48;;;7.55;;
49384;SDS011;36795;45.028;38.968;2023-08-07T18:16:02;20.77;;;6.20;;
49384;SDS011;36795;45.028;38.968;2023-08-07T18:19:18;21.58;;;6.82;;
49384;SDS011;36795;45.028;38.968;2023-08-07T18:25:48;23.10;;;6.82;;
49384;SDS011;36795;45.028;38.968;2023-08-07T18:28:58;23.02;;;7.50;;
49384;SDS011;36795;45.028;38.968;2023-08-07T18:32:18;20.27;;;6.60;;
49384;SDS011;36795;45.028;38.968;2023-08-07T18:35:32;23.75;;;7.05;;
49384;SDS011;36795;45.028;38.968;2023-08-07T18:38:50;23.10;;;6.93;;
49384;SDS011;36795;45.028;38.968;2023-08-07T18:42:15;22.23;;;7.18;;
49384;SDS011;36795;45.028;38.968;2023-08-07T18:45:17;21.45;;;6.85;;
49384;SDS011;36795;45.028;38.968;2023-08-07T18:48:36;21.08;;;6.32;;
49384;SDS011;36795;45.028;38.968;2023-08-07T18:51:49;23.17;;;6.95;;
49384;SDS011;36795;45.028;38.968;2023-08-07T18:55:10;22.45;;;6.97;;
49384;SDS011;36795;45.028;38.968;2023-08-07T18:58:14;22.30;;;6.85;;
49384;SDS011;36795;45.028;38.968;2023-08-07T19:01:17;23.38;;;8.32;;
49384;SDS011;36795;45.028;38.968;2023-08-07T19:04:21;20.15;;;6.70;;
49384;SDS011;36795;45.028;38.968;2023-08-07T19:07:50;23.90;;;8.40;;
49384;SDS011;36795;45.028;38.968;2023-08-07T19:11:05;23.90;;;8.02;;
49384;SDS011;36795;45.028;38.968;2023-08-07T19:14:33;21.70;;;7.53;;
49384;SDS011;36795;45.028;38.968;2023-08-07T19:18:01;23.60;;;7.00;;
49384;SDS011;36795;45.028;38.968;2023-08-07T19:21:11;19.80;;;6.82;;
49384;SDS011;36795;45.028;38.968;2023-08-07T19:27:50;21.02;;;6.97;;
49384;SDS011;36795;45.028;38.968;2023-08-07T19:30:54;22.65;;;6.87;;
49384;SDS011;36795;45.028;38.968;2023-08-07T19:34:02;20.15;;;6.22;;
49384;SDS011;36795;45.028;38.968;2023-08-07T19:37:07;27.10;;;8.43;;
49384;SDS011;36795;45.028;38.968;2023-08-07T19:40:16;19.73;;;6.28;;
49384;SDS011;36795;45.028;38.968;2023-08-07T19:43:19;20.17;;;6.30;;
49384;SDS011;36795;45.028;38.968;2023-08-07T19:46:17;21.60;;;5.93;;